DTMB/MIR METAR and TAF weather

Enter ICAO airport designator
Station Type Date Time Source
DTMB METAR 2021/04/17 01:30 UTC NOAA

DTMB 170130Z 08008KT 8000 SCT016 SCT026 15/11 Q1009


Station Type Date Time Source
DTMB Decoded METAR 2021/04/17 01:30 UTC NOAA

Habib Bourguiba , Tunisia (DTMB) 35-46N 010-45E
Apr 16, 2021 - 09:30 PM EDT / 2021.04.17 0130 UTC
Wind: from the E (080 degrees) at 9 MPH (8 KT):0
Visibility: 4 mile(s):0
Sky conditions: partly cloudy
Temperature: 59 F (15 C)
Dew Point: 51 F (11 C)
Relative Humidity: 76%
Pressure (altimeter): 29.80 in. Hg (1009 hPa)
ob: DTMB 170130Z 08008KT 8000 SCT016 SCT026 15/11 Q1009
cycle: 1

Station Type Date Time Source
DTMB TAF 2021/04/16 18:06 UTC NOAA

TAF TAF DTMB 161700Z 1618/1718 05020KT 6000 SCT020
TEMPO 1619/1624 03018G28KT RA SCT020 PROB40
TEMPO 1700/1708 4000 SHRA SCT020TCU

Example: see airport list